createdAt,value
2018-06-15T02:19:13.360Z,20.50
2018-06-15T02:21:41.605Z,16.70
2018-06-15T02:24:09.842Z,16.60
2018-06-15T02:26:38.079Z,16.70
2018-06-15T02:29:06.330Z,16.70
2018-06-15T02:31:34.628Z,16.80
2018-06-15T02:34:02.912Z,16.80
2018-06-15T02:36:31.167Z,16.90
2018-06-15T02:41:27.791Z,17.00
2018-06-15T02:43:56.162Z,17.10
2018-06-15T02:46:24.401Z,17.10
2018-06-15T02:48:52.640Z,17.20
2018-06-15T02:51:21.456Z,17.20
2018-06-15T02:53:49.734Z,17.30
2018-06-15T02:56:18.029Z,17.40
2018-06-15T02:58:46.343Z,17.40
2018-06-15T03:01:14.591Z,17.40
2018-06-15T03:03:42.870Z,17.40
2018-06-15T03:06:11.266Z,17.50
2018-06-15T03:08:39.495Z,17.50
2018-06-15T03:11:07.938Z,17.50
2018-06-15T03:13:36.742Z,17.60
2018-06-15T03:16:05.042Z,17.60
2018-06-15T03:18:33.285Z,17.60
2018-06-15T03:21:01.566Z,17.60
2018-06-15T03:23:29.800Z,17.60
2018-06-15T03:25:58.038Z,17.70
2018-06-15T03:28:26.386Z,17.70
2018-06-15T03:30:54.643Z,17.70
2018-06-15T03:33:23.006Z,17.70
2018-06-15T03:35:51.263Z,17.70
2018-06-15T03:38:19.512Z,17.70
2018-06-15T03:40:47.764Z,17.70
2018-06-15T03:43:16.045Z,17.80
2018-06-15T03:45:44.307Z,17.80
2018-06-15T03:48:12.562Z,17.80
2018-06-15T03:50:40.905Z,17.80
2018-06-15T03:53:09.131Z,17.80
2018-06-15T03:55:37.415Z,17.80
2018-06-15T03:58:05.624Z,17.80
2018-06-15T04:00:33.858Z,17.80
2018-06-15T04:05:29.946Z,17.90
2018-06-15T04:07:58.202Z,17.80
2018-06-15T04:10:26.624Z,17.90
2018-06-15T04:12:54.946Z,17.90
2018-06-15T04:15:23.133Z,17.90
2018-06-15T04:17:57.661Z,17.90
2018-06-15T04:20:25.940Z,17.90
2018-06-15T04:22:54.397Z,17.90
2018-06-15T04:25:22.750Z,17.90
2018-06-15T04:27:50.986Z,17.90
2018-06-15T04:32:47.130Z,18.00
2018-06-15T04:37:43.257Z,18.00
2018-06-15T04:40:13.948Z,18.10
2018-06-15T04:45:10.191Z,18.10
2018-06-15T04:50:06.914Z,18.10
2018-06-15T04:52:35.175Z,18.20
2018-06-15T04:55:03.410Z,18.20
2018-06-15T04:57:31.678Z,18.20
2018-06-15T05:00:00.326Z,18.30
2018-06-15T05:02:29.213Z,18.30
2018-06-15T05:04:57.584Z,18.30
2018-06-15T05:07:26.218Z,18.30
2018-06-15T05:09:54.771Z,18.30
2018-06-15T05:12:23.013Z,18.40
2018-06-15T05:14:51.273Z,18.40
2018-06-15T05:17:19.588Z,18.40
2018-06-15T05:19:47.943Z,18.30
2018-06-15T05:22:16.200Z,18.30
2018-06-15T05:24:45.223Z,18.40
2018-06-15T05:27:13.560Z,18.40
2018-06-15T05:29:41.767Z,18.40
2018-06-15T05:32:10.126Z,18.40
2018-06-15T05:34:44.483Z,18.50
2018-06-15T05:37:12.724Z,18.50
2018-06-15T05:39:40.962Z,18.60
2018-06-15T05:42:09.266Z,18.60
2018-06-15T05:44:37.473Z,18.70
2018-06-15T05:47:05.714Z,18.70
2018-06-15T05:49:34.674Z,18.70
2018-06-15T05:52:03.019Z,18.80
2018-06-15T05:54:31.238Z,18.90
2018-06-15T05:56:59.572Z,19.00
2018-06-15T05:59:27.800Z,19.00
2018-06-15T06:01:57.148Z,19.10
2018-06-15T06:04:25.482Z,19.10
2018-06-15T06:06:53.742Z,19.20
2018-06-15T06:09:21.941Z,19.20
2018-06-15T06:11:50.187Z,19.30
2018-06-15T06:14:18.435Z,19.30
2018-06-15T06:16:46.786Z,19.20
2018-06-15T06:19:15.160Z,19.30
2018-06-15T06:21:43.406Z,19.30
2018-06-15T06:24:11.845Z,19.30
2018-06-15T06:26:40.098Z,19.30
2018-06-15T06:29:08.333Z,19.30
2018-06-15T06:31:36.589Z,19.30
2018-06-15T06:34:04.888Z,19.40
2018-06-15T06:43:56.778Z,19.50
2018-06-15T06:46:25.047Z,19.40
2018-06-15T06:48:53.307Z,19.40
2018-06-15T06:51:21.594Z,19.40
2018-06-15T06:53:49.839Z,19.40
2018-06-15T06:56:18.107Z,19.40
2018-06-15T06:58:46.350Z,19.40
2018-06-15T07:01:14.758Z,19.40
2018-06-15T07:03:43.086Z,19.40
2018-06-15T07:06:11.423Z,19.40
2018-06-15T07:08:39.660Z,19.40
2018-06-15T07:11:08.140Z,19.40
2018-06-15T07:13:36.354Z,19.40
2018-06-15T07:16:04.613Z,19.30
2018-06-15T07:18:32.866Z,19.40
2018-06-15T07:21:01.339Z,19.30
2018-06-15T07:23:29.617Z,19.30
2018-06-15T07:25:57.834Z,19.30
2018-06-15T07:28:26.887Z,19.30
2018-06-15T07:30:55.274Z,19.20
2018-06-15T07:33:23.572Z,19.20
2018-06-15T07:35:51.842Z,19.20
2018-06-15T07:38:20.091Z,19.30
2018-06-15T07:40:48.374Z,19.30
2018-06-15T07:43:16.619Z,19.30
2018-06-15T07:45:44.887Z,19.40
2018-06-15T07:48:13.202Z,19.40
2018-06-15T07:50:41.710Z,19.50
2018-06-15T07:53:10.113Z,19.60
2018-06-15T07:55:38.331Z,19.80
2018-06-15T07:58:06.585Z,20.00
2018-06-15T08:00:34.821Z,20.20
2018-06-15T08:03:03.049Z,20.50
2018-06-15T08:05:31.308Z,20.70
2018-06-15T08:07:59.591Z,20.90
2018-06-15T08:10:27.842Z,21.00
2018-06-15T08:12:56.107Z,21.00
2018-06-15T08:15:24.356Z,21.10
2018-06-15T08:17:52.926Z,21.10
2018-06-15T08:20:21.273Z,21.00
2018-06-15T08:22:49.526Z,21.00
2018-06-15T08:25:17.758Z,21.00
2018-06-15T08:27:46.006Z,21.00
2018-06-15T08:32:42.239Z,21.20
2018-06-15T08:35:10.474Z,21.20
2018-06-15T08:37:38.758Z,21.40
2018-06-15T08:40:07.022Z,21.50
